KSCF/SCF METAR and TAF weather

Enter ICAO airport designator
Station Type Date Time Source
KSCF METAR 2021/09/30 18:50 UTC NOAA

KSCF 301850Z AUTO 11010KT 10SM 27/24 A3000 RMK A01


Station Type Date Time Source
KSCF Decoded METAR 2021/09/30 18:50 UTC NOAA

South Marsh 268, LA, United States (KSCF) 29-06-57N 091-52-16W
Sep 30, 2021 - 02:50 PM EDT / 2021.09.30 1850 UTC
Wind: from the ESE (110 degrees) at 12 MPH (10 KT):0
Visibility: 10 mile(s):0
Temperature: 80 F (27 C)
Dew Point: 75 F (24 C)
Relative Humidity: 83%
Pressure (altimeter): 30 in. Hg (1015 hPa)
ob: KSCF 301850Z AUTO 11010KT 10SM 27/24 A3000 RMK A01
cycle: 19

Station Type Date Time Source
KSCF TAF UTC NOAA

Error!

Example: see airport list